sensor_id;sensor_type;location;lat;lon;timestamp;P1;durP1;ratioP1;P2;durP2;ratioP2
22060;SDS011;11194;48.092;-1.382;2022-10-16T00:01:23;13.95;;;8.55;;
22060;SDS011;11194;48.092;-1.382;2022-10-16T00:03:50;15.95;;;8.77;;
22060;SDS011;11194;48.092;-1.382;2022-10-16T00:06:17;15.85;;;8.57;;
22060;SDS011;11194;48.092;-1.382;2022-10-16T00:08:44;20.38;;;9.38;;
22060;SDS011;11194;48.092;-1.382;2022-10-16T00:11:20;17.67;;;8.55;;
22060;SDS011;11194;48.092;-1.382;2022-10-16T00:13:46;16.60;;;9.18;;
22060;SDS011;11194;48.092;-1.382;2022-10-16T00:16:13;17.45;;;8.45;;
22060;SDS011;11194;48.092;-1.382;2022-10-16T00:18:39;18.75;;;8.85;;
22060;SDS011;11194;48.092;-1.382;2022-10-16T00:21:07;14.48;;;8.27;;
22060;SDS011;11194;48.092;-1.382;2022-10-16T00:23:34;19.55;;;8.68;;
22060;SDS011;11194;48.092;-1.382;2022-10-16T00:26:02;15.73;;;8.50;;
22060;SDS011;11194;48.092;-1.382;2022-10-16T00:28:28;15.73;;;8.93;;
22060;SDS011;11194;48.092;-1.382;2022-10-16T00:30:55;17.30;;;8.75;;
22060;SDS011;11194;48.092;-1.382;2022-10-16T00:33:21;16.80;;;9.20;;
22060;SDS011;11194;48.092;-1.382;2022-10-16T00:35:47;17.42;;;8.85;;
22060;SDS011;11194;48.092;-1.382;2022-10-16T00:38:14;18.58;;;8.65;;
22060;SDS011;11194;48.092;-1.382;2022-10-16T00:40:40;15.38;;;8.20;;
22060;SDS011;11194;48.092;-1.382;2022-10-16T00:43:12;14.82;;;8.63;;
22060;SDS011;11194;48.092;-1.382;2022-10-16T00:45:38;19.42;;;8.32;;
22060;SDS011;11194;48.092;-1.382;2022-10-16T00:48:06;15.18;;;8.50;;
22060;SDS011;11194;48.092;-1.382;2022-10-16T00:50:36;14.05;;;8.43;;
22060;SDS011;11194;48.092;-1.382;2022-10-16T00:53:02;15.00;;;8.13;;
22060;SDS011;11194;48.092;-1.382;2022-10-16T00:55:28;16.38;;;8.27;;
22060;SDS011;11194;48.092;-1.382;2022-10-16T00:57:55;12.18;;;6.65;;
22060;SDS011;11194;48.092;-1.382;2022-10-16T01:00:23;14.50;;;7.53;;
22060;SDS011;11194;48.092;-1.382;2022-10-16T01:02:56;16.88;;;7.88;;
22060;SDS011;11194;48.092;-1.382;2022-10-16T01:05:23;14.00;;;7.85;;
22060;SDS011;11194;48.092;-1.382;2022-10-16T01:15:27;16.00;;;7.03;;
22060;SDS011;11194;48.092;-1.382;2022-10-16T01:23:15;12.18;;;6.57;;
22060;SDS011;11194;48.092;-1.382;2022-10-16T01:28:36;13.15;;;6.72;;
22060;SDS011;11194;48.092;-1.382;2022-10-16T04:00:25;15.02;;;7.18;;
22060;SDS011;11194;48.092;-1.382;2022-10-16T04:02:52;16.00;;;7.32;;
22060;SDS011;11194;48.092;-1.382;2022-10-16T04:05:18;16.70;;;7.30;;
22060;SDS011;11194;48.092;-1.382;2022-10-16T04:07:44;14.90;;;7.38;;
22060;SDS011;11194;48.092;-1.382;2022-10-16T04:10:10;16.67;;;7.60;;
22060;SDS011;11194;48.092;-1.382;2022-10-16T04:12:36;17.70;;;7.65;;
22060;SDS011;11194;48.092;-1.382;2022-10-16T04:15:02;17.10;;;7.88;;
22060;SDS011;11194;48.092;-1.382;2022-10-16T04:17:28;15.10;;;7.50;;
22060;SDS011;11194;48.092;-1.382;2022-10-16T04:19:54;17.52;;;8.57;;
22060;SDS011;11194;48.092;-1.382;2022-10-16T04:22:20;19.73;;;8.50;;
22060;SDS011;11194;48.092;-1.382;2022-10-16T04:24:46;21.63;;;8.70;;
22060;SDS011;11194;48.092;-1.382;2022-10-16T04:27:12;19.35;;;8.15;;
22060;SDS011;11194;48.092;-1.382;2022-10-16T04:29:38;19.08;;;7.68;;
22060;SDS011;11194;48.092;-1.382;2022-10-16T04:32:04;21.00;;;9.13;;
22060;SDS011;11194;48.092;-1.382;2022-10-16T04:34:30;20.52;;;9.50;;
22060;SDS011;11194;48.092;-1.382;2022-10-16T04:36:56;25.75;;;9.95;;
22060;SDS011;11194;48.092;-1.382;2022-10-16T04:39:22;27.83;;;10.48;;
22060;SDS011;11194;48.092;-1.382;2022-10-16T04:41:48;27.15;;;10.80;;
22060;SDS011;11194;48.092;-1.382;2022-10-16T04:44:14;28.33;;;10.43;;
22060;SDS011;11194;48.092;-1.382;2022-10-16T04:46:41;30.65;;;10.98;;
22060;SDS011;11194;48.092;-1.382;2022-10-16T04:49:07;26.88;;;11.38;;
22060;SDS011;11194;48.092;-1.382;2022-10-16T04:51:33;28.45;;;11.32;;
22060;SDS011;11194;48.092;-1.382;2022-10-16T04:53:59;30.75;;;11.77;;
22060;SDS011;11194;48.092;-1.382;2022-10-16T04:56:25;27.92;;;11.02;;
22060;SDS011;11194;48.092;-1.382;2022-10-16T04:58:51;30.25;;;11.23;;
22060;SDS011;11194;48.092;-1.382;2022-10-16T05:01:17;29.98;;;11.43;;
22060;SDS011;11194;48.092;-1.382;2022-10-16T05:03:43;29.63;;;11.57;;
22060;SDS011;11194;48.092;-1.382;2022-10-16T05:06:09;32.53;;;12.13;;
22060;SDS011;11194;48.092;-1.382;2022-10-16T05:08:35;34.33;;;13.35;;
22060;SDS011;11194;48.092;-1.382;2022-10-16T05:11:01;37.92;;;14.73;;
22060;SDS011;11194;48.092;-1.382;2022-10-16T05:13:27;40.05;;;13.77;;
22060;SDS011;11194;48.092;-1.382;2022-10-16T05:15:53;36.05;;;14.35;;
22060;SDS011;11194;48.092;-1.382;2022-10-16T05:18:19;43.20;;;14.60;;
22060;SDS011;11194;48.092;-1.382;2022-10-16T05:20:45;38.83;;;14.98;;
22060;SDS011;11194;48.092;-1.382;2022-10-16T05:23:11;40.22;;;15.43;;
22060;SDS011;11194;48.092;-1.382;2022-10-16T05:25:37;41.33;;;14.38;;
22060;SDS011;11194;48.092;-1.382;2022-10-16T05:28:04;36.15;;;13.40;;
22060;SDS011;11194;48.092;-1.382;2022-10-16T05:30:30;39.40;;;14.45;;
22060;SDS011;11194;48.092;-1.382;2022-10-16T05:32:56;41.10;;;14.38;;
22060;SDS011;11194;48.092;-1.382;2022-10-16T05:35:22;37.58;;;14.60;;
22060;SDS011;11194;48.092;-1.382;2022-10-16T05:37:48;39.05;;;14.85;;
22060;SDS011;11194;48.092;-1.382;2022-10-16T05:40:14;39.83;;;14.27;;
22060;SDS011;11194;48.092;-1.382;2022-10-16T05:42:41;34.63;;;14.02;;
22060;SDS011;11194;48.092;-1.382;2022-10-16T05:45:07;38.75;;;13.90;;
22060;SDS011;11194;48.092;-1.382;2022-10-16T05:47:34;38.55;;;14.35;;
22060;SDS011;11194;48.092;-1.382;2022-10-16T05:50:01;35.63;;;14.48;;
22060;SDS011;11194;48.092;-1.382;2022-10-16T05:52:29;36.35;;;14.23;;
22060;SDS011;11194;48.092;-1.382;2022-10-16T05:54:55;41.60;;;15.25;;
22060;SDS011;11194;48.092;-1.382;2022-10-16T05:57:21;36.70;;;14.50;;
22060;SDS011;11194;48.092;-1.382;2022-10-16T05:59:47;41.97;;;14.60;;
22060;SDS011;11194;48.092;-1.382;2022-10-16T06:02:13;33.42;;;14.40;;
22060;SDS011;11194;48.092;-1.382;2022-10-16T06:04:39;37.25;;;15.02;;
22060;SDS011;11194;48.092;-1.382;2022-10-16T06:07:05;43.88;;;15.02;;
22060;SDS011;11194;48.092;-1.382;2022-10-16T06:09:31;36.55;;;14.65;;
22060;SDS011;11194;48.092;-1.382;2022-10-16T06:11:57;40.75;;;14.50;;
22060;SDS011;11194;48.092;-1.382;2022-10-16T06:14:23;35.13;;;14.18;;
22060;SDS011;11194;48.092;-1.382;2022-10-16T06:16:49;33.30;;;14.63;;
22060;SDS011;11194;48.092;-1.382;2022-10-16T06:19:15;36.70;;;14.65;;
22060;SDS011;11194;48.092;-1.382;2022-10-16T06:21:42;34.38;;;14.07;;
22060;SDS011;11194;48.092;-1.382;2022-10-16T06:24:09;36.70;;;13.27;;
22060;SDS011;11194;48.092;-1.382;2022-10-16T06:26:35;27.98;;;12.85;;
22060;SDS011;11194;48.092;-1.382;2022-10-16T06:29:01;32.50;;;12.77;;
22060;SDS011;11194;48.092;-1.382;2022-10-16T06:31:27;28.65;;;11.48;;
22060;SDS011;11194;48.092;-1.382;2022-10-16T06:33:56;24.17;;;10.85;;
22060;SDS011;11194;48.092;-1.382;2022-10-16T06:36:22;27.00;;;10.52;;
22060;SDS011;11194;48.092;-1.382;2022-10-16T06:38:49;27.02;;;11.10;;
22060;SDS011;11194;48.092;-1.382;2022-10-16T06:41:16;24.77;;;11.20;;
22060;SDS011;11194;48.092;-1.382;2022-10-16T06:43:43;22.77;;;10.50;;
22060;SDS011;11194;48.092;-1.382;2022-10-16T06:46:10;21.38;;;10.30;;
22060;SDS011;11194;48.092;-1.382;2022-10-16T06:48:37;18.80;;;8.60;;
22060;SDS011;11194;48.092;-1.382;2022-10-16T06:51:09;17.13;;;8.15;;
22060;SDS011;11194;48.092;-1.382;2022-10-16T06:53:35;17.60;;;9.02;;
22060;SDS011;11194;48.092;-1.382;2022-10-16T06:56:09;22.63;;;8.73;;
22060;SDS011;11194;48.092;-1.382;2022-10-16T06:58:36;18.48;;;9.13;;
22060;SDS011;11194;48.092;-1.382;2022-10-16T07:01:02;18.05;;;8.88;;
22060;SDS011;11194;48.092;-1.382;2022-10-16T07:03:29;23.70;;;10.07;;
22060;SDS011;11194;48.092;-1.382;2022-10-16T07:05:55;29.15;;;11.30;;
22060;SDS011;11194;48.092;-1.382;2022-10-16T07:08:21;22.10;;;9.95;;
22060;SDS011;11194;48.092;-1.382;2022-10-16T07:10:47;19.48;;;9.13;;
22060;SDS011;11194;48.092;-1.382;2022-10-16T07:13:13;18.35;;;8.45;;
22060;SDS011;11194;48.092;-1.382;2022-10-16T07:15:40;17.88;;;8.63;;
22060;SDS011;11194;48.092;-1.382;2022-10-16T07:18:06;19.45;;;8.50;;
22060;SDS011;11194;48.092;-1.382;2022-10-16T07:20:32;16.67;;;8.23;;
22060;SDS011;11194;48.092;-1.382;2022-10-16T07:22:58;14.88;;;7.65;;
22060;SDS011;11194;48.092;-1.382;2022-10-16T07:25:24;16.75;;;7.60;;
22060;SDS011;11194;48.092;-1.382;2022-10-16T07:27:50;14.90;;;8.05;;
22060;SDS011;11194;48.092;-1.382;2022-10-16T07:30:16;13.68;;;8.23;;
22060;SDS011;11194;48.092;-1.382;2022-10-16T07:32:42;14.10;;;7.78;;
22060;SDS011;11194;48.092;-1.382;2022-10-16T07:35:08;15.20;;;6.75;;
22060;SDS011;11194;48.092;-1.382;2022-10-16T07:37:34;12.10;;;6.97;;
22060;SDS011;11194;48.092;-1.382;2022-10-16T07:40:00;11.05;;;6.72;;
22060;SDS011;11194;48.092;-1.382;2022-10-16T07:42:26;13.45;;;6.25;;
22060;SDS011;11194;48.092;-1.382;2022-10-16T07:44:53;11.13;;;6.03;;
22060;SDS011;11194;48.092;-1.382;2022-10-16T07:47:19;9.75;;;6.03;;
22060;SDS011;11194;48.092;-1.382;2022-10-16T07:49:45;10.18;;;5.55;;
22060;SDS011;11194;48.092;-1.382;2022-10-16T07:52:11;10.35;;;5.30;;
22060;SDS011;11194;48.092;-1.382;2022-10-16T07:54:37;8.50;;;4.60;;
22060;SDS011;11194;48.092;-1.382;2022-10-16T07:57:03;9.43;;;4.60;;
22060;SDS011;11194;48.092;-1.382;2022-10-16T07:59:29;10.57;;;5.40;;
22060;SDS011;11194;48.092;-1.382;2022-10-16T08:01:56;9.10;;;4.25;;
22060;SDS011;11194;48.092;-1.382;2022-10-16T08:04:22;8.32;;;4.30;;
22060;SDS011;11194;48.092;-1.382;2022-10-16T08:06:48;7.05;;;4.10;;
22060;SDS011;11194;48.092;-1.382;2022-10-16T08:09:14;8.57;;;4.22;;
22060;SDS011;11194;48.092;-1.382;2022-10-16T08:11:40;5.90;;;4.00;;
22060;SDS011;11194;48.092;-1.382;2022-10-16T08:14:06;7.80;;;4.22;;
22060;SDS011;11194;48.092;-1.382;2022-10-16T08:16:32;7.32;;;3.90;;
22060;SDS011;11194;48.092;-1.382;2022-10-16T08:18:58;7.13;;;3.60;;
22060;SDS011;11194;48.092;-1.382;2022-10-16T08:21:24;4.13;;;3.13;;
22060;SDS011;11194;48.092;-1.382;2022-10-16T08:23:52;4.93;;;3.20;;
22060;SDS011;11194;48.092;-1.382;2022-10-16T08:26:18;5.55;;;2.90;;
22060;SDS011;11194;48.092;-1.382;2022-10-16T08:28:44;4.97;;;2.95;;
22060;SDS011;11194;48.092;-1.382;2022-10-16T08:31:11;5.65;;;2.83;;
22060;SDS011;11194;48.092;-1.382;2022-10-16T08:33:38;3.25;;;1.92;;
22060;SDS011;11194;48.092;-1.382;2022-10-16T08:36:05;5.70;;;2.15;;
22060;SDS011;11194;48.092;-1.382;2022-10-16T08:38:31;5.80;;;2.25;;
22060;SDS011;11194;48.092;-1.382;2022-10-16T08:41:02;2.55;;;1.50;;
22060;SDS011;11194;48.092;-1.382;2022-10-16T08:43:37;3.08;;;1.30;;
22060;SDS011;11194;48.092;-1.382;2022-10-16T08:46:30;5.03;;;1.40;;
22060;SDS011;11194;48.092;-1.382;2022-10-16T08:48:53;2.58;;;1.20;;
22060;SDS011;11194;48.092;-1.382;2022-10-16T08:51:24;2.22;;;1.42;;
22060;SDS011;11194;48.092;-1.382;2022-10-16T08:53:54;2.63;;;1.27;;
22060;SDS011;11194;48.092;-1.382;2022-10-16T08:56:21;2.00;;;1.20;;
22060;SDS011;11194;48.092;-1.382;2022-10-16T08:58:47;4.45;;;1.77;;
22060;SDS011;11194;48.092;-1.382;2022-10-16T09:01:14;4.38;;;1.50;;
22060;SDS011;11194;48.092;-1.382;2022-10-16T09:03:52;3.10;;;1.50;;
22060;SDS011;11194;48.092;-1.382;2022-10-16T09:06:28;4.53;;;1.50;;
22060;SDS011;11194;48.092;-1.382;2022-10-16T09:09:06;4.32;;;1.70;;
22060;SDS011;11194;48.092;-1.382;2022-10-16T09:16:53;3.78;;;2.08;;
22060;SDS011;11194;48.092;-1.382;2022-10-16T09:19:27;4.82;;;1.77;;
22060;SDS011;11194;48.092;-1.382;2022-10-16T09:21:55;4.00;;;1.83;;
22060;SDS011;11194;48.092;-1.382;2022-10-16T09:24:23;3.35;;;2.10;;
22060;SDS011;11194;48.092;-1.382;2022-10-16T09:26:50;4.63;;;2.20;;
22060;SDS011;11194;48.092;-1.382;2022-10-16T09:29:17;5.18;;;2.17;;
22060;SDS011;11194;48.092;-1.382;2022-10-16T09:31:48;4.40;;;2.30;;
22060;SDS011;11194;48.092;-1.382;2022-10-16T09:36:44;2.80;;;1.65;;
22060;SDS011;11194;48.092;-1.382;2022-10-16T09:39:10;4.78;;;1.95;;
22060;SDS011;11194;48.092;-1.382;2022-10-16T09:41:37;3.72;;;1.63;;
22060;SDS011;11194;48.092;-1.382;2022-10-16T09:44:06;4.57;;;2.20;;
22060;SDS011;11194;48.092;-1.382;2022-10-16T09:46:42;3.35;;;1.95;;
22060;SDS011;11194;48.092;-1.382;2022-10-16T09:49:25;2.42;;;1.83;;
22060;SDS011;11194;48.092;-1.382;2022-10-16T09:52:02;4.57;;;1.67;;
22060;SDS011;11194;48.092;-1.382;2022-10-16T09:54:28;5.53;;;1.92;;
22060;SDS011;11194;48.092;-1.382;2022-10-16T09:57:03;5.47;;;1.80;;
22060;SDS011;11194;48.092;-1.382;2022-10-16T09:59:31;4.70;;;1.63;;
22060;SDS011;11194;48.092;-1.382;2022-10-16T10:02:00;2.47;;;1.10;;
22060;SDS011;11194;48.092;-1.382;2022-10-16T10:04:36;3.08;;;1.00;;
22060;SDS011;11194;48.092;-1.382;2022-10-16T10:07:03;2.00;;;0.90;;
22060;SDS011;11194;48.092;-1.382;2022-10-16T10:09:38;2.72;;;1.00;;
22060;SDS011;11194;48.092;-1.382;2022-10-16T10:12:05;3.63;;;1.55;;
22060;SDS011;11194;48.092;-1.382;2022-10-16T10:14:34;2.53;;;1.27;;
22060;SDS011;11194;48.092;-1.382;2022-10-16T10:19:38;2.40;;;1.08;;
22060;SDS011;11194;48.092;-1.382;2022-10-16T10:27:21;2.85;;;1.00;;
22060;SDS011;11194;48.092;-1.382;2022-10-16T10:32:33;1.67;;;0.82;;
22060;SDS011;11194;48.092;-1.382;2022-10-16T10:38:09;3.63;;;1.45;;
22060;SDS011;11194;48.092;-1.382;2022-10-16T10:45:52;1.25;;;0.70;;
22060;SDS011;11194;48.092;-1.382;2022-10-16T10:48:24;3.35;;;1.08;;
22060;SDS011;11194;48.092;-1.382;2022-10-16T10:50:54;2.50;;;0.93;;
22060;SDS011;11194;48.092;-1.382;2022-10-16T10:56:14;1.58;;;1.02;;
22060;SDS011;11194;48.092;-1.382;2022-10-16T11:01:14;1.95;;;1.20;;
22060;SDS011;11194;48.092;-1.382;2022-10-16T11:06:28;3.63;;;1.08;;
22060;SDS011;11194;48.092;-1.382;2022-10-16T11:09:00;2.17;;;1.17;;
22060;SDS011;11194;48.092;-1.382;2022-10-16T11:11:33;1.88;;;1.17;;
22060;SDS011;11194;48.092;-1.382;2022-10-16T11:14:03;4.60;;;1.60;;
22060;SDS011;11194;48.092;-1.382;2022-10-16T11:17:14;2.20;;;1.60;;
22060;SDS011;11194;48.092;-1.382;2022-10-16T11:21:51;2.78;;;1.60;;
22060;SDS011;11194;48.092;-1.382;2022-10-16T11:24:22;3.08;;;1.67;;
22060;SDS011;11194;48.092;-1.382;2022-10-16T11:26:49;4.60;;;2.20;;
22060;SDS011;11194;48.092;-1.382;2022-10-16T11:29:20;6.40;;;2.10;;
22060;SDS011;11194;48.092;-1.382;2022-10-16T11:31:50;6.60;;;2.45;;
22060;SDS011;11194;48.092;-1.382;2022-10-16T11:34:21;3.22;;;1.90;;
22060;SDS011;11194;48.092;-1.382;2022-10-16T11:36:53;6.22;;;2.28;;
22060;SDS011;11194;48.092;-1.382;2022-10-16T11:41:59;3.88;;;2.38;;
22060;SDS011;11194;48.092;-1.382;2022-10-16T11:49:42;3.15;;;2.35;;
22060;SDS011;11194;48.092;-1.382;2022-10-16T11:54:55;4.75;;;2.70;;
22060;SDS011;11194;48.092;-1.382;2022-10-16T11:57:29;6.07;;;2.72;;
22060;SDS011;11194;48.092;-1.382;2022-10-16T12:05:23;6.50;;;4.43;;
22060;SDS011;11194;48.092;-1.382;2022-10-16T12:08:01;4.05;;;3.65;;
22060;SDS011;11194;48.092;-1.382;2022-10-16T12:10:29;9.70;;;6.95;;
22060;SDS011;11194;48.092;-1.382;2022-10-16T12:12:57;5.72;;;4.93;;
22060;SDS011;11194;48.092;-1.382;2022-10-16T12:17:52;5.75;;;4.97;;
22060;SDS011;11194;48.092;-1.382;2022-10-16T12:22:55;3.80;;;3.30;;
22060;SDS011;11194;48.092;-1.382;2022-10-16T12:27:53;3.47;;;2.83;;
22060;SDS011;11194;48.092;-1.382;2022-10-16T12:30:21;2.60;;;2.10;;
22060;SDS011;11194;48.092;-1.382;2022-10-16T12:32:58;3.20;;;2.28;;
22060;SDS011;11194;48.092;-1.382;2022-10-16T12:35:27;2.72;;;2.10;;
22060;SDS011;11194;48.092;-1.382;2022-10-16T12:37:54;3.35;;;2.20;;
22060;SDS011;11194;48.092;-1.382;2022-10-16T12:40:29;3.88;;;1.92;;
22060;SDS011;11194;48.092;-1.382;2022-10-16T12:42:56;2.33;;;1.80;;
22060;SDS011;11194;48.092;-1.382;2022-10-16T12:45:27;2.42;;;1.80;;
22060;SDS011;11194;48.092;-1.382;2022-10-16T12:47:55;2.58;;;1.80;;
22060;SDS011;11194;48.092;-1.382;2022-10-16T12:50:32;2.13;;;1.70;;
22060;SDS011;11194;48.092;-1.382;2022-10-16T12:52:58;3.10;;;1.50;;
22060;SDS011;11194;48.092;-1.382;2022-10-16T12:55:25;2.60;;;1.73;;
22060;SDS011;11194;48.092;-1.382;2022-10-16T13:11:41;3.10;;;1.90;;
22060;SDS011;11194;48.092;-1.382;2022-10-16T13:17:19;1.95;;;1.70;;
22060;SDS011;11194;48.092;-1.382;2022-10-16T13:19:38;2.15;;;1.85;;
22060;SDS011;11194;48.092;-1.382;2022-10-16T13:22:12;1.98;;;1.70;;
22060;SDS011;11194;48.092;-1.382;2022-10-16T13:29:53;2.20;;;1.60;;
22060;SDS011;11194;48.092;-1.382;2022-10-16T13:32:20;1.52;;;1.42;;
22060;SDS011;11194;48.092;-1.382;2022-10-16T13:34:48;1.95;;;1.65;;
22060;SDS011;11194;48.092;-1.382;2022-10-16T13:37:16;2.55;;;1.50;;
22060;SDS011;11194;48.092;-1.382;2022-10-16T13:39:43;1.63;;;1.52;;
22060;SDS011;11194;48.092;-1.382;2022-10-16T13:42:10;1.45;;;1.33;;
22060;SDS011;11194;48.092;-1.382;2022-10-16T13:44:51;2.25;;;1.70;;
22060;SDS011;11194;48.092;-1.382;2022-10-16T13:47:18;3.80;;;1.70;;
22060;SDS011;11194;48.092;-1.382;2022-10-16T13:49:45;2.13;;;1.60;;
22060;SDS011;11194;48.092;-1.382;2022-10-16T13:52:17;2.63;;;1.50;;
22060;SDS011;11194;48.092;-1.382;2022-10-16T13:54:43;1.45;;;1.35;;
22060;SDS011;11194;48.092;-1.382;2022-10-16T13:57:12;2.90;;;1.67;;
22060;SDS011;11194;48.092;-1.382;2022-10-16T13:59:38;1.70;;;1.50;;
22060;SDS011;11194;48.092;-1.382;2022-10-16T14:04:49;2.50;;;1.30;;
22060;SDS011;11194;48.092;-1.382;2022-10-16T14:07:26;1.65;;;1.55;;
22060;SDS011;11194;48.092;-1.382;2022-10-16T14:09:53;2.10;;;1.80;;
22060;SDS011;11194;48.092;-1.382;2022-10-16T14:12:20;2.47;;;1.83;;
22060;SDS011;11194;48.092;-1.382;2022-10-16T14:14:47;2.42;;;1.58;;
22060;SDS011;11194;48.092;-1.382;2022-10-16T14:17:15;1.73;;;1.60;;
22060;SDS011;11194;48.092;-1.382;2022-10-16T14:19:45;1.70;;;1.40;;
22060;SDS011;11194;48.092;-1.382;2022-10-16T14:22:20;3.88;;;1.60;;
22060;SDS011;11194;48.092;-1.382;2022-10-16T14:24:48;2.38;;;2.08;;
22060;SDS011;11194;48.092;-1.382;2022-10-16T14:27:28;2.67;;;1.65;;
22060;SDS011;11194;48.092;-1.382;2022-10-16T14:33:00;1.80;;;1.65;;
22060;SDS011;11194;48.092;-1.382;2022-10-16T14:35:36;1.77;;;1.67;;
22060;SDS011;11194;48.092;-1.382;2022-10-16T14:38:03;2.08;;;1.58;;
22060;SDS011;11194;48.092;-1.382;2022-10-16T14:40:31;2.85;;;1.30;;
22060;SDS011;11194;48.092;-1.382;2022-10-16T14:42:58;1.70;;;1.60;;
22060;SDS011;11194;48.092;-1.382;2022-10-16T14:45:26;3.28;;;1.50;;
22060;SDS011;11194;48.092;-1.382;2022-10-16T14:47:57;2.20;;;1.92;;
22060;SDS011;11194;48.092;-1.382;2022-10-16T14:50:24;2.20;;;2.00;;
22060;SDS011;11194;48.092;-1.382;2022-10-16T14:52:50;3.28;;;1.90;;
22060;SDS011;11194;48.092;-1.382;2022-10-16T14:55:16;2.63;;;1.80;;
22060;SDS011;11194;48.092;-1.382;2022-10-16T14:57:42;2.92;;;1.70;;
22060;SDS011;11194;48.092;-1.382;2022-10-16T15:00:13;2.08;;;1.88;;
22060;SDS011;11194;48.092;-1.382;2022-10-16T15:02:40;3.35;;;2.10;;
22060;SDS011;11194;48.092;-1.382;2022-10-16T15:05:15;2.67;;;2.08;;
22060;SDS011;11194;48.092;-1.382;2022-10-16T15:07:42;3.83;;;2.05;;
22060;SDS011;11194;48.092;-1.382;2022-10-16T15:10:08;3.42;;;2.20;;
22060;SDS011;11194;48.092;-1.382;2022-10-16T15:12:34;2.40;;;2.10;;
22060;SDS011;11194;48.092;-1.382;2022-10-16T15:15:00;4.72;;;2.35;;
22060;SDS011;11194;48.092;-1.382;2022-10-16T15:17:27;3.10;;;2.35;;
22060;SDS011;11194;48.092;-1.382;2022-10-16T15:19:53;2.50;;;2.13;;
22060;SDS011;11194;48.092;-1.382;2022-10-16T15:22:19;4.00;;;2.45;;
22060;SDS011;11194;48.092;-1.382;2022-10-16T15:24:48;4.03;;;2.30;;
22060;SDS011;11194;48.092;-1.382;2022-10-16T15:27:14;2.58;;;2.38;;
22060;SDS011;11194;48.092;-1.382;2022-10-16T15:29:40;5.30;;;3.00;;
22060;SDS011;11194;48.092;-1.382;2022-10-16T15:32:06;3.50;;;2.60;;
22060;SDS011;11194;48.092;-1.382;2022-10-16T15:34:32;4.00;;;2.22;;
22060;SDS011;11194;48.092;-1.382;2022-10-16T15:36:58;3.88;;;3.20;;
22060;SDS011;11194;48.092;-1.382;2022-10-16T15:39:28;4.60;;;2.95;;
22060;SDS011;11194;48.092;-1.382;2022-10-16T15:41:54;3.25;;;2.92;;
22060;SDS011;11194;48.092;-1.382;2022-10-16T15:44:20;3.97;;;2.85;;
22060;SDS011;11194;48.092;-1.382;2022-10-16T15:46:51;2.95;;;2.60;;
22060;SDS011;11194;48.092;-1.382;2022-10-16T15:49:20;4.57;;;2.92;;
22060;SDS011;11194;48.092;-1.382;2022-10-16T15:51:46;5.05;;;3.00;;
22060;SDS011;11194;48.092;-1.382;2022-10-16T15:54:12;4.60;;;3.08;;
22060;SDS011;11194;48.092;-1.382;2022-10-16T15:56:38;4.78;;;3.00;;
22060;SDS011;11194;48.092;-1.382;2022-10-16T15:59:04;3.35;;;3.00;;
22060;SDS011;11194;48.092;-1.382;2022-10-16T16:01:34;4.05;;;3.00;;
22060;SDS011;11194;48.092;-1.382;2022-10-16T16:04:00;4.93;;;3.03;;
22060;SDS011;11194;48.092;-1.382;2022-10-16T16:06:26;3.20;;;2.67;;
22060;SDS011;11194;48.092;-1.382;2022-10-16T16:08:53;3.50;;;2.75;;
22060;SDS011;11194;48.092;-1.382;2022-10-16T16:11:19;5.85;;;3.22;;
22060;SDS011;11194;48.092;-1.382;2022-10-16T16:13:47;3.13;;;2.53;;
22060;SDS011;11194;48.092;-1.382;2022-10-16T16:16:14;5.10;;;3.00;;
22060;SDS011;11194;48.092;-1.382;2022-10-16T16:18:41;3.90;;;3.47;;
22060;SDS011;11194;48.092;-1.382;2022-10-16T16:21:07;4.70;;;2.95;;
22060;SDS011;11194;48.092;-1.382;2022-10-16T16:23:34;4.60;;;3.22;;
22060;SDS011;11194;48.092;-1.382;2022-10-16T16:28:28;4.32;;;3.40;;
22060;SDS011;11194;48.092;-1.382;2022-10-16T16:30:55;3.97;;;3.38;;
22060;SDS011;11194;48.092;-1.382;2022-10-16T16:33:21;4.15;;;3.33;;
22060;SDS011;11194;48.092;-1.382;2022-10-16T16:35:47;3.80;;;3.40;;
22060;SDS011;11194;48.092;-1.382;2022-10-16T16:38:13;4.30;;;3.65;;
22060;SDS011;11194;48.092;-1.382;2022-10-16T16:40:39;5.40;;;4.03;;
22060;SDS011;11194;48.092;-1.382;2022-10-16T16:43:05;3.95;;;3.38;;
22060;SDS011;11194;48.092;-1.382;2022-10-16T16:45:34;5.78;;;3.97;;
22060;SDS011;11194;48.092;-1.382;2022-10-16T16:48:01;5.00;;;3.58;;
22060;SDS011;11194;48.092;-1.382;2022-10-16T16:50:27;5.80;;;3.72;;
22060;SDS011;11194;48.092;-1.382;2022-10-16T16:52:53;7.35;;;3.60;;
22060;SDS011;11194;48.092;-1.382;2022-10-16T16:55:19;5.82;;;3.75;;
22060;SDS011;11194;48.092;-1.382;2022-10-16T16:57:47;5.90;;;3.70;;
22060;SDS011;11194;48.092;-1.382;2022-10-16T17:00:13;4.53;;;3.85;;
22060;SDS011;11194;48.092;-1.382;2022-10-16T17:02:40;5.05;;;4.05;;
22060;SDS011;11194;48.092;-1.382;2022-10-16T17:05:08;5.32;;;4.45;;
22060;SDS011;11194;48.092;-1.382;2022-10-16T17:07:34;4.97;;;4.47;;
22060;SDS011;11194;48.092;-1.382;2022-10-16T17:10:01;5.55;;;4.57;;
22060;SDS011;11194;48.092;-1.382;2022-10-16T17:12:28;6.80;;;3.97;;
22060;SDS011;11194;48.092;-1.382;2022-10-16T17:14:55;4.85;;;3.78;;
22060;SDS011;11194;48.092;-1.382;2022-10-16T17:17:21;5.22;;;3.80;;
22060;SDS011;11194;48.092;-1.382;2022-10-16T17:19:49;4.50;;;4.10;;
22060;SDS011;11194;48.092;-1.382;2022-10-16T17:22:15;4.93;;;3.70;;
22060;SDS011;11194;48.092;-1.382;2022-10-16T17:24:41;5.57;;;3.65;;
22060;SDS011;11194;48.092;-1.382;2022-10-16T17:27:08;5.68;;;4.50;;
22060;SDS011;11194;48.092;-1.382;2022-10-16T17:29:35;5.68;;;4.13;;
22060;SDS011;11194;48.092;-1.382;2022-10-16T17:32:01;5.07;;;3.97;;
22060;SDS011;11194;48.092;-1.382;2022-10-16T17:34:27;4.55;;;4.10;;
22060;SDS011;11194;48.092;-1.382;2022-10-16T17:36:53;4.35;;;3.90;;
22060;SDS011;11194;48.092;-1.382;2022-10-16T17:39:19;4.40;;;4.00;;
22060;SDS011;11194;48.092;-1.382;2022-10-16T17:41:46;4.40;;;4.00;;
22060;SDS011;11194;48.092;-1.382;2022-10-16T17:44:13;13.23;;;4.43;;
22060;SDS011;11194;48.092;-1.382;2022-10-16T17:46:44;5.00;;;4.10;;
22060;SDS011;11194;48.092;-1.382;2022-10-16T17:49:11;5.93;;;4.20;;
22060;SDS011;11194;48.092;-1.382;2022-10-16T17:51:37;5.20;;;4.50;;
22060;SDS011;11194;48.092;-1.382;2022-10-16T17:54:03;6.25;;;4.53;;
22060;SDS011;11194;48.092;-1.382;2022-10-16T17:56:29;5.72;;;4.70;;
22060;SDS011;11194;48.092;-1.382;2022-10-16T17:58:57;5.82;;;4.95;;
22060;SDS011;11194;48.092;-1.382;2022-10-16T18:01:28;5.65;;;4.68;;
22060;SDS011;11194;48.092;-1.382;2022-10-16T18:03:55;5.07;;;4.57;;
22060;SDS011;11194;48.092;-1.382;2022-10-16T18:06:22;7.40;;;5.53;;
22060;SDS011;11194;48.092;-1.382;2022-10-16T18:08:48;5.57;;;4.95;;
22060;SDS011;11194;48.092;-1.382;2022-10-16T18:11:14;7.90;;;5.35;;
22060;SDS011;11194;48.092;-1.382;2022-10-16T18:13:41;6.63;;;5.32;;
22060;SDS011;11194;48.092;-1.382;2022-10-16T18:16:09;6.95;;;5.40;;
22060;SDS011;11194;48.092;-1.382;2022-10-16T18:18:36;5.85;;;5.25;;
22060;SDS011;11194;48.092;-1.382;2022-10-16T18:21:04;6.18;;;5.45;;
22060;SDS011;11194;48.092;-1.382;2022-10-16T18:23:32;5.97;;;5.35;;
22060;SDS011;11194;48.092;-1.382;2022-10-16T18:25:58;8.40;;;5.13;;
22060;SDS011;11194;48.092;-1.382;2022-10-16T18:28:24;7.13;;;5.07;;
22060;SDS011;11194;48.092;-1.382;2022-10-16T18:31:32;7.38;;;4.90;;
22060;SDS011;11194;48.092;-1.382;2022-10-16T18:33:40;7.50;;;4.75;;
22060;SDS011;11194;48.092;-1.382;2022-10-16T18:36:11;6.47;;;4.90;;
22060;SDS011;11194;48.092;-1.382;2022-10-16T18:38:37;6.05;;;4.95;;
22060;SDS011;11194;48.092;-1.382;2022-10-16T18:41:03;6.30;;;5.00;;
22060;SDS011;11194;48.092;-1.382;2022-10-16T18:43:33;6.10;;;5.50;;
22060;SDS011;11194;48.092;-1.382;2022-10-16T18:46:00;6.75;;;5.05;;
22060;SDS011;11194;48.092;-1.382;2022-10-16T18:48:27;7.57;;;5.65;;